Ana Sayfa
METAR-TAF:

METAR-TAF

Havaalanları :

Dumas, Teksas, Amerika Birleşik Devletleri

Enlem: 35-51-28N, Boylam: 102-00-47W, yükseklik: 1129 m

Güncel hava durumu gözlemi

Rapor saat 09:55 UTC de 28 dakika önce yapıldı.
Rüzgar güneybatıdan 10 kt
Sıcaklık 12°C
Nem 40%
Basınç 1013 hPa
Görüş mesafesi: 16.1 km
Açık gökyüzü

METAR: KDUX 070955Z AUTO 23010KT 10SM CLR 12/M01 A2990 RMK AO2 T01161013

Saat: 05:23 (10:23 UTC)


TAF: eksik

4.000'den fazla havaalanı için hava durumu gözlemleri ve tahminleri (METAR ve TAF raporları).

Kullanılabilir istasyonlar harita üzerinde sarı ve kırmızı noktalarla gösterilir.

İstasyonun adını görmek için fareyi noktanın üzerinde gezdirin.

Sonrasında hava gözlem ve tahminlerini görmek için tıklayın.

Haritayı değiştirmek için: yaklaştırmak için siyah artı işaretli yeşil düğmeye ve uzaklaştırmak için de eksi işaretli düğmeye hızla tıklayın; bitişik haritalar için yeşil okları kullanın.


METAR-TAF: